sensor_id;sensor_type;location;lat;lon;timestamp;P1;durP1;ratioP1;P2;durP2;ratioP2
49678;SDS011;35570;48.218;16.326;2023-06-14T00:00:38;4.10;;;2.83;;
49678;SDS011;35570;48.218;16.326;2023-06-14T00:03:06;4.78;;;2.95;;
49678;SDS011;35570;48.218;16.326;2023-06-14T00:05:34;4.50;;;2.72;;
49678;SDS011;35570;48.218;16.326;2023-06-14T00:08:05;4.43;;;2.80;;
49678;SDS011;35570;48.218;16.326;2023-06-14T00:10:33;5.63;;;2.53;;
49678;SDS011;35570;48.218;16.326;2023-06-14T00:13:00;5.85;;;2.80;;
49678;SDS011;35570;48.218;16.326;2023-06-14T00:15:30;6.20;;;3.00;;
49678;SDS011;35570;48.218;16.326;2023-06-14T00:17:59;7.03;;;3.08;;
49678;SDS011;35570;48.218;16.326;2023-06-14T00:20:29;5.20;;;2.90;;
49678;SDS011;35570;48.218;16.326;2023-06-14T00:22:57;7.10;;;3.00;;
49678;SDS011;35570;48.218;16.326;2023-06-14T00:25:23;4.20;;;2.80;;
49678;SDS011;35570;48.218;16.326;2023-06-14T00:27:53;4.57;;;3.10;;
49678;SDS011;35570;48.218;16.326;2023-06-14T00:30:22;3.95;;;2.88;;
49678;SDS011;35570;48.218;16.326;2023-06-14T00:32:48;4.85;;;3.00;;
49678;SDS011;35570;48.218;16.326;2023-06-14T00:35:14;3.58;;;2.88;;
49678;SDS011;35570;48.218;16.326;2023-06-14T00:37:40;6.88;;;3.67;;
49678;SDS011;35570;48.218;16.326;2023-06-14T00:40:06;4.65;;;2.90;;
49678;SDS011;35570;48.218;16.326;2023-06-14T00:42:32;4.72;;;3.10;;
49678;SDS011;35570;48.218;16.326;2023-06-14T00:44:58;5.30;;;3.58;;
49678;SDS011;35570;48.218;16.326;2023-06-14T00:47:25;6.55;;;3.80;;
49678;SDS011;35570;48.218;16.326;2023-06-14T00:49:52;4.40;;;3.78;;
49678;SDS011;35570;48.218;16.326;2023-06-14T00:52:19;6.70;;;3.60;;
49678;SDS011;35570;48.218;16.326;2023-06-14T00:54:46;4.55;;;3.03;;
49678;SDS011;35570;48.218;16.326;2023-06-14T00:57:12;4.45;;;2.97;;
49678;SDS011;35570;48.218;16.326;2023-06-14T00:59:41;4.50;;;2.80;;
49678;SDS011;35570;48.218;16.326;2023-06-14T01:02:12;7.25;;;2.95;;
49678;SDS011;35570;48.218;16.326;2023-06-14T01:04:40;5.47;;;2.85;;
49678;SDS011;35570;48.218;16.326;2023-06-14T01:09:46;4.68;;;3.00;;
49678;SDS011;35570;48.218;16.326;2023-06-14T01:12:30;7.65;;;2.97;;
49678;SDS011;35570;48.218;16.326;2023-06-14T01:15:13;3.40;;;2.53;;
49678;SDS011;35570;48.218;16.326;2023-06-14T01:17:40;3.90;;;2.65;;
49678;SDS011;35570;48.218;16.326;2023-06-14T01:20:10;4.65;;;2.83;;
49678;SDS011;35570;48.218;16.326;2023-06-14T01:22:53;4.25;;;2.78;;
49678;SDS011;35570;48.218;16.326;2023-06-14T01:25:22;4.63;;;3.03;;
49678;SDS011;35570;48.218;16.326;2023-06-14T01:27:48;4.35;;;2.85;;
49678;SDS011;35570;48.218;16.326;2023-06-14T01:30:16;4.72;;;2.53;;
49678;SDS011;35570;48.218;16.326;2023-06-14T01:32:42;3.42;;;2.85;;
49678;SDS011;35570;48.218;16.326;2023-06-14T01:35:10;4.05;;;2.72;;
49678;SDS011;35570;48.218;16.326;2023-06-14T01:37:36;3.75;;;2.60;;
49678;SDS011;35570;48.218;16.326;2023-06-14T01:40:03;5.22;;;2.80;;
49678;SDS011;35570;48.218;16.326;2023-06-14T01:42:31;4.75;;;2.47;;
49678;SDS011;35570;48.218;16.326;2023-06-14T01:45:02;3.85;;;2.70;;
49678;SDS011;35570;48.218;16.326;2023-06-14T01:47:30;5.20;;;2.80;;
49678;SDS011;35570;48.218;16.326;2023-06-14T01:49:57;4.00;;;2.40;;
49678;SDS011;35570;48.218;16.326;2023-06-14T01:52:23;4.65;;;2.92;;
49678;SDS011;35570;48.218;16.326;2023-06-14T01:54:49;5.53;;;2.70;;
49678;SDS011;35570;48.218;16.326;2023-06-14T01:57:15;5.00;;;2.63;;
49678;SDS011;35570;48.218;16.326;2023-06-14T01:59:41;5.97;;;2.97;;
49678;SDS011;35570;48.218;16.326;2023-06-14T02:02:07;4.82;;;2.63;;
49678;SDS011;35570;48.218;16.326;2023-06-14T02:04:33;2.90;;;2.60;;
49678;SDS011;35570;48.218;16.326;2023-06-14T02:06:58;4.20;;;2.97;;
49678;SDS011;35570;48.218;16.326;2023-06-14T02:09:24;5.90;;;3.00;;
49678;SDS011;35570;48.218;16.326;2023-06-14T02:11:50;3.67;;;2.60;;
49678;SDS011;35570;48.218;16.326;2023-06-14T02:14:16;5.18;;;2.63;;
49678;SDS011;35570;48.218;16.326;2023-06-14T02:16:45;4.05;;;2.80;;
49678;SDS011;35570;48.218;16.326;2023-06-14T02:19:16;3.97;;;2.60;;
49678;SDS011;35570;48.218;16.326;2023-06-14T02:21:44;2.95;;;2.60;;
49678;SDS011;35570;48.218;16.326;2023-06-14T02:24:10;4.30;;;3.08;;
49678;SDS011;35570;48.218;16.326;2023-06-14T02:26:36;3.22;;;2.67;;
49678;SDS011;35570;48.218;16.326;2023-06-14T02:29:08;5.20;;;2.65;;
49678;SDS011;35570;48.218;16.326;2023-06-14T02:31:36;3.28;;;2.60;;
49678;SDS011;35570;48.218;16.326;2023-06-14T02:34:02;3.63;;;2.67;;
49678;SDS011;35570;48.218;16.326;2023-06-14T02:36:27;4.88;;;2.88;;
49678;SDS011;35570;48.218;16.326;2023-06-14T02:38:56;4.93;;;3.10;;
49678;SDS011;35570;48.218;16.326;2023-06-14T02:41:25;5.82;;;3.25;;
49678;SDS011;35570;48.218;16.326;2023-06-14T02:43:51;4.43;;;3.33;;
49678;SDS011;35570;48.218;16.326;2023-06-14T02:46:21;5.15;;;2.90;;
49678;SDS011;35570;48.218;16.326;2023-06-14T02:48:46;4.85;;;3.53;;
49678;SDS011;35570;48.218;16.326;2023-06-14T02:51:12;5.10;;;3.50;;
49678;SDS011;35570;48.218;16.326;2023-06-14T02:53:38;6.10;;;2.70;;
49678;SDS011;35570;48.218;16.326;2023-06-14T02:56:04;6.93;;;2.83;;
49678;SDS011;35570;48.218;16.326;2023-06-14T02:58:30;4.10;;;2.88;;
49678;SDS011;35570;48.218;16.326;2023-06-14T03:00:56;7.40;;;3.13;;
49678;SDS011;35570;48.218;16.326;2023-06-14T03:03:22;4.18;;;3.05;;
49678;SDS011;35570;48.218;16.326;2023-06-14T03:05:49;7.70;;;2.92;;
49678;SDS011;35570;48.218;16.326;2023-06-14T03:08:16;6.20;;;3.00;;
49678;SDS011;35570;48.218;16.326;2023-06-14T03:10:45;5.90;;;3.15;;
49678;SDS011;35570;48.218;16.326;2023-06-14T03:13:11;3.40;;;2.85;;
49678;SDS011;35570;48.218;16.326;2023-06-14T03:15:37;7.00;;;3.03;;
49678;SDS011;35570;48.218;16.326;2023-06-14T03:18:03;5.80;;;3.40;;
49678;SDS011;35570;48.218;16.326;2023-06-14T03:20:29;4.45;;;2.85;;
49678;SDS011;35570;48.218;16.326;2023-06-14T03:22:58;4.50;;;3.03;;
49678;SDS011;35570;48.218;16.326;2023-06-14T03:25:28;4.85;;;2.85;;
49678;SDS011;35570;48.218;16.326;2023-06-14T03:27:55;3.67;;;2.90;;
49678;SDS011;35570;48.218;16.326;2023-06-14T03:30:21;4.70;;;3.00;;
49678;SDS011;35570;48.218;16.326;2023-06-14T03:32:47;3.03;;;2.55;;
49678;SDS011;35570;48.218;16.326;2023-06-14T03:35:13;3.85;;;2.80;;
49678;SDS011;35570;48.218;16.326;2023-06-14T03:37:45;5.53;;;3.30;;
49678;SDS011;35570;48.218;16.326;2023-06-14T03:40:12;10.60;;;4.43;;
49678;SDS011;35570;48.218;16.326;2023-06-14T03:42:40;6.75;;;3.75;;
49678;SDS011;35570;48.218;16.326;2023-06-14T03:45:05;7.20;;;3.75;;
49678;SDS011;35570;48.218;16.326;2023-06-14T03:47:32;6.90;;;4.15;;
49678;SDS011;35570;48.218;16.326;2023-06-14T03:49:58;7.00;;;3.28;;
49678;SDS011;35570;48.218;16.326;2023-06-14T03:52:23;7.25;;;3.55;;
49678;SDS011;35570;48.218;16.326;2023-06-14T03:54:50;4.47;;;2.95;;
49678;SDS011;35570;48.218;16.326;2023-06-14T03:57:16;5.18;;;3.25;;
49678;SDS011;35570;48.218;16.326;2023-06-14T03:59:42;9.25;;;3.55;;
49678;SDS011;35570;48.218;16.326;2023-06-14T04:02:07;7.10;;;3.10;;
49678;SDS011;35570;48.218;16.326;2023-06-14T04:04:34;5.47;;;3.08;;
49678;SDS011;35570;48.218;16.326;2023-06-14T04:07:00;4.60;;;3.05;;
49678;SDS011;35570;48.218;16.326;2023-06-14T04:09:28;4.70;;;3.05;;
49678;SDS011;35570;48.218;16.326;2023-06-14T04:11:55;6.40;;;3.10;;
49678;SDS011;35570;48.218;16.326;2023-06-14T04:14:21;4.05;;;2.90;;
49678;SDS011;35570;48.218;16.326;2023-06-14T04:16:47;7.32;;;3.60;;
49678;SDS011;35570;48.218;16.326;2023-06-14T04:19:14;5.55;;;3.10;;
49678;SDS011;35570;48.218;16.326;2023-06-14T04:21:41;8.02;;;3.72;;
49678;SDS011;35570;48.218;16.326;2023-06-14T04:24:06;4.95;;;3.30;;
49678;SDS011;35570;48.218;16.326;2023-06-14T04:26:39;4.72;;;3.35;;
49678;SDS011;35570;48.218;16.326;2023-06-14T04:29:05;4.95;;;3.20;;
49678;SDS011;35570;48.218;16.326;2023-06-14T04:31:31;4.95;;;3.30;;
49678;SDS011;35570;48.218;16.326;2023-06-14T04:34:02;6.72;;;3.78;;
49678;SDS011;35570;48.218;16.326;2023-06-14T04:36:31;6.18;;;4.25;;
49678;SDS011;35570;48.218;16.326;2023-06-14T04:39:02;6.40;;;4.13;;
49678;SDS011;35570;48.218;16.326;2023-06-14T04:41:29;6.28;;;4.20;;
49678;SDS011;35570;48.218;16.326;2023-06-14T04:43:57;6.13;;;3.53;;
49678;SDS011;35570;48.218;16.326;2023-06-14T04:46:26;6.53;;;3.47;;
49678;SDS011;35570;48.218;16.326;2023-06-14T04:48:54;6.30;;;3.83;;
49678;SDS011;35570;48.218;16.326;2023-06-14T04:51:19;5.90;;;3.83;;
49678;SDS011;35570;48.218;16.326;2023-06-14T04:53:47;7.38;;;5.43;;
49678;SDS011;35570;48.218;16.326;2023-06-14T04:56:14;5.72;;;4.70;;
49678;SDS011;35570;48.218;16.326;2023-06-14T04:58:41;6.47;;;4.15;;
49678;SDS011;35570;48.218;16.326;2023-06-14T05:01:08;7.13;;;4.32;;
49678;SDS011;35570;48.218;16.326;2023-06-14T05:03:34;6.20;;;3.30;;
49678;SDS011;35570;48.218;16.326;2023-06-14T05:06:00;5.82;;;3.35;;
49678;SDS011;35570;48.218;16.326;2023-06-14T05:08:25;5.93;;;5.28;;
49678;SDS011;35570;48.218;16.326;2023-06-14T05:10:52;6.93;;;5.63;;
49678;SDS011;35570;48.218;16.326;2023-06-14T05:13:18;8.25;;;5.30;;
49678;SDS011;35570;48.218;16.326;2023-06-14T05:15:43;6.38;;;4.57;;
49678;SDS011;35570;48.218;16.326;2023-06-14T05:18:09;6.68;;;3.88;;
49678;SDS011;35570;48.218;16.326;2023-06-14T05:20:35;5.72;;;4.00;;
49678;SDS011;35570;48.218;16.326;2023-06-14T05:23:02;6.43;;;3.63;;
49678;SDS011;35570;48.218;16.326;2023-06-14T05:25:28;6.13;;;3.67;;
49678;SDS011;35570;48.218;16.326;2023-06-14T05:27:53;4.40;;;3.80;;
49678;SDS011;35570;48.218;16.326;2023-06-14T05:30:19;6.80;;;4.25;;
49678;SDS011;35570;48.218;16.326;2023-06-14T05:32:45;8.63;;;5.57;;
49678;SDS011;35570;48.218;16.326;2023-06-14T05:35:11;5.10;;;4.18;;
49678;SDS011;35570;48.218;16.326;2023-06-14T05:37:42;4.40;;;3.80;;
49678;SDS011;35570;48.218;16.326;2023-06-14T05:40:08;4.72;;;3.60;;
49678;SDS011;35570;48.218;16.326;2023-06-14T05:42:34;6.97;;;4.40;;
49678;SDS011;35570;48.218;16.326;2023-06-14T05:45:00;4.78;;;3.08;;
49678;SDS011;35570;48.218;16.326;2023-06-14T05:47:26;6.57;;;4.03;;
49678;SDS011;35570;48.218;16.326;2023-06-14T05:49:52;8.93;;;3.28;;
49678;SDS011;35570;48.218;16.326;2023-06-14T05:52:19;3.42;;;2.78;;
49678;SDS011;35570;48.218;16.326;2023-06-14T05:54:45;4.60;;;2.83;;
49678;SDS011;35570;48.218;16.326;2023-06-14T05:57:11;5.55;;;2.95;;
49678;SDS011;35570;48.218;16.326;2023-06-14T05:59:37;4.28;;;3.08;;
49678;SDS011;35570;48.218;16.326;2023-06-14T06:02:03;6.80;;;3.13;;
49678;SDS011;35570;48.218;16.326;2023-06-14T06:04:28;5.78;;;3.38;;
49678;SDS011;35570;48.218;16.326;2023-06-14T06:06:54;8.60;;;3.53;;
49678;SDS011;35570;48.218;16.326;2023-06-14T06:09:20;4.93;;;3.38;;
49678;SDS011;35570;48.218;16.326;2023-06-14T06:11:45;4.97;;;3.00;;
49678;SDS011;35570;48.218;16.326;2023-06-14T06:14:11;6.50;;;2.78;;
49678;SDS011;35570;48.218;16.326;2023-06-14T06:16:36;5.03;;;3.33;;
49678;SDS011;35570;48.218;16.326;2023-06-14T06:19:02;5.30;;;3.03;;
49678;SDS011;35570;48.218;16.326;2023-06-14T06:21:28;4.13;;;3.08;;
49678;SDS011;35570;48.218;16.326;2023-06-14T06:23:53;8.30;;;3.33;;
49678;SDS011;35570;48.218;16.326;2023-06-14T06:26:21;5.03;;;3.38;;
49678;SDS011;35570;48.218;16.326;2023-06-14T06:28:47;7.50;;;3.60;;
49678;SDS011;35570;48.218;16.326;2023-06-14T06:31:13;6.15;;;4.30;;
49678;SDS011;35570;48.218;16.326;2023-06-14T06:33:38;7.45;;;4.38;;
49678;SDS011;35570;48.218;16.326;2023-06-14T06:36:04;10.40;;;4.03;;
49678;SDS011;35570;48.218;16.326;2023-06-14T06:38:30;4.63;;;3.47;;
49678;SDS011;35570;48.218;16.326;2023-06-14T06:40:56;6.70;;;3.40;;
49678;SDS011;35570;48.218;16.326;2023-06-14T06:43:22;4.65;;;3.28;;
49678;SDS011;35570;48.218;16.326;2023-06-14T06:45:47;4.88;;;3.20;;
49678;SDS011;35570;48.218;16.326;2023-06-14T06:48:13;4.85;;;3.15;;
49678;SDS011;35570;48.218;16.326;2023-06-14T06:50:39;4.78;;;3.05;;
49678;SDS011;35570;48.218;16.326;2023-06-14T06:53:04;6.45;;;3.10;;
49678;SDS011;35570;48.218;16.326;2023-06-14T06:55:31;3.90;;;2.75;;
49678;SDS011;35570;48.218;16.326;2023-06-14T06:57:57;5.15;;;2.72;;
49678;SDS011;35570;48.218;16.326;2023-06-14T07:00:23;4.78;;;2.40;;
49678;SDS011;35570;48.218;16.326;2023-06-14T07:02:49;4.80;;;2.33;;
49678;SDS011;35570;48.218;16.326;2023-06-14T07:05:15;4.35;;;2.47;;
49678;SDS011;35570;48.218;16.326;2023-06-14T07:07:41;4.53;;;2.25;;
49678;SDS011;35570;48.218;16.326;2023-06-14T07:10:07;6.00;;;2.45;;
49678;SDS011;35570;48.218;16.326;2023-06-14T07:12:32;4.97;;;2.40;;
49678;SDS011;35570;48.218;16.326;2023-06-14T07:15:01;4.68;;;2.30;;
49678;SDS011;35570;48.218;16.326;2023-06-14T07:17:26;4.95;;;2.35;;
49678;SDS011;35570;48.218;16.326;2023-06-14T07:19:52;3.70;;;2.30;;
49678;SDS011;35570;48.218;16.326;2023-06-14T07:22:18;5.20;;;2.55;;
49678;SDS011;35570;48.218;16.326;2023-06-14T07:24:44;4.85;;;2.75;;
49678;SDS011;35570;48.218;16.326;2023-06-14T07:27:10;6.15;;;3.45;;
49678;SDS011;35570;48.218;16.326;2023-06-14T07:29:38;4.05;;;2.45;;
49678;SDS011;35570;48.218;16.326;2023-06-14T07:32:03;4.05;;;2.08;;
49678;SDS011;35570;48.218;16.326;2023-06-14T07:34:30;5.55;;;3.38;;
49678;SDS011;35570;48.218;16.326;2023-06-14T07:36:57;4.75;;;2.63;;
49678;SDS011;35570;48.218;16.326;2023-06-14T07:39:22;6.28;;;5.25;;
49678;SDS011;35570;48.218;16.326;2023-06-14T07:41:48;8.50;;;5.95;;
49678;SDS011;35570;48.218;16.326;2023-06-14T07:44:14;6.10;;;4.13;;
49678;SDS011;35570;48.218;16.326;2023-06-14T07:46:40;4.82;;;3.47;;
49678;SDS011;35570;48.218;16.326;2023-06-14T07:49:06;7.05;;;3.17;;
49678;SDS011;35570;48.218;16.326;2023-06-14T07:51:33;4.72;;;3.58;;
49678;SDS011;35570;48.218;16.326;2023-06-14T07:53:59;5.25;;;3.30;;
49678;SDS011;35570;48.218;16.326;2023-06-14T07:56:28;4.00;;;2.78;;
49678;SDS011;35570;48.218;16.326;2023-06-14T07:58:54;4.82;;;2.80;;
49678;SDS011;35570;48.218;16.326;2023-06-14T08:01:19;4.15;;;2.60;;
49678;SDS011;35570;48.218;16.326;2023-06-14T08:03:45;4.95;;;3.00;;
49678;SDS011;35570;48.218;16.326;2023-06-14T08:06:11;3.17;;;2.30;;
49678;SDS011;35570;48.218;16.326;2023-06-14T08:08:36;4.10;;;2.67;;
49678;SDS011;35570;48.218;16.326;2023-06-14T08:11:02;8.70;;;3.25;;
49678;SDS011;35570;48.218;16.326;2023-06-14T08:13:28;5.10;;;3.17;;
49678;SDS011;35570;48.218;16.326;2023-06-14T08:15:53;3.33;;;2.40;;
49678;SDS011;35570;48.218;16.326;2023-06-14T08:18:22;5.50;;;2.60;;
49678;SDS011;35570;48.218;16.326;2023-06-14T08:20:47;2.58;;;2.38;;
49678;SDS011;35570;48.218;16.326;2023-06-14T08:23:13;4.47;;;2.88;;
49678;SDS011;35570;48.218;16.326;2023-06-14T08:25:39;6.15;;;3.97;;
49678;SDS011;35570;48.218;16.326;2023-06-14T08:28:05;6.55;;;4.88;;
49678;SDS011;35570;48.218;16.326;2023-06-14T08:30:31;5.50;;;3.90;;
49678;SDS011;35570;48.218;16.326;2023-06-14T08:32:56;5.93;;;3.53;;
49678;SDS011;35570;48.218;16.326;2023-06-14T08:35:22;4.72;;;3.60;;
49678;SDS011;35570;48.218;16.326;2023-06-14T08:37:48;4.15;;;3.10;;
49678;SDS011;35570;48.218;16.326;2023-06-14T08:40:22;7.20;;;2.67;;
49678;SDS011;35570;48.218;16.326;2023-06-14T08:42:52;4.28;;;2.97;;
49678;SDS011;35570;48.218;16.326;2023-06-14T08:45:19;3.92;;;2.53;;
49678;SDS011;35570;48.218;16.326;2023-06-14T08:47:48;4.25;;;2.65;;
49678;SDS011;35570;48.218;16.326;2023-06-14T08:50:22;5.50;;;2.38;;
49678;SDS011;35570;48.218;16.326;2023-06-14T08:52:51;3.90;;;2.15;;
49678;SDS011;35570;48.218;16.326;2023-06-14T08:55:20;6.55;;;2.30;;
49678;SDS011;35570;48.218;16.326;2023-06-14T08:57:51;4.85;;;2.30;;
49678;SDS011;35570;48.218;16.326;2023-06-14T09:00:18;4.28;;;2.10;;
49678;SDS011;35570;48.218;16.326;2023-06-14T09:02:46;4.68;;;2.15;;
49678;SDS011;35570;48.218;16.326;2023-06-14T09:05:15;5.10;;;2.45;;
49678;SDS011;35570;48.218;16.326;2023-06-14T09:07:43;4.50;;;2.20;;
49678;SDS011;35570;48.218;16.326;2023-06-14T09:10:10;6.63;;;2.42;;
49678;SDS011;35570;48.218;16.326;2023-06-14T09:12:37;3.42;;;1.90;;
49678;SDS011;35570;48.218;16.326;2023-06-14T09:15:04;3.00;;;2.30;;
49678;SDS011;35570;48.218;16.326;2023-06-14T09:17:33;3.22;;;2.38;;
49678;SDS011;35570;48.218;16.326;2023-06-14T09:20:03;3.53;;;1.88;;
49678;SDS011;35570;48.218;16.326;2023-06-14T09:22:38;4.25;;;2.92;;
49678;SDS011;35570;48.218;16.326;2023-06-14T09:25:04;3.92;;;2.40;;
49678;SDS011;35570;48.218;16.326;2023-06-14T09:27:32;4.88;;;3.47;;
49678;SDS011;35570;48.218;16.326;2023-06-14T09:30:00;9.30;;;4.03;;
49678;SDS011;35570;48.218;16.326;2023-06-14T09:32:27;3.72;;;2.58;;
49678;SDS011;35570;48.218;16.326;2023-06-14T09:34:53;3.60;;;2.00;;
49678;SDS011;35570;48.218;16.326;2023-06-14T09:37:26;4.72;;;2.60;;
49678;SDS011;35570;48.218;16.326;2023-06-14T09:39:55;5.72;;;2.00;;
49678;SDS011;35570;48.218;16.326;2023-06-14T09:42:22;3.33;;;1.92;;
49678;SDS011;35570;48.218;16.326;2023-06-14T09:44:50;5.13;;;2.40;;
49678;SDS011;35570;48.218;16.326;2023-06-14T09:47:17;4.55;;;2.35;;
49678;SDS011;35570;48.218;16.326;2023-06-14T09:49:43;4.65;;;1.77;;
49678;SDS011;35570;48.218;16.326;2023-06-14T09:52:16;3.05;;;2.40;;
49678;SDS011;35570;48.218;16.326;2023-06-14T09:54:45;4.25;;;2.45;;
49678;SDS011;35570;48.218;16.326;2023-06-14T09:57:15;4.97;;;2.40;;
49678;SDS011;35570;48.218;16.326;2023-06-14T09:59:45;4.97;;;2.38;;
49678;SDS011;35570;48.218;16.326;2023-06-14T10:02:21;5.82;;;2.00;;
49678;SDS011;35570;48.218;16.326;2023-06-14T10:04:58;3.92;;;2.38;;
49678;SDS011;35570;48.218;16.326;2023-06-14T10:07:31;4.38;;;1.80;;
49678;SDS011;35570;48.218;16.326;2023-06-14T10:10:00;4.95;;;2.13;;
49678;SDS011;35570;48.218;16.326;2023-06-14T10:12:26;4.95;;;2.30;;
49678;SDS011;35570;48.218;16.326;2023-06-14T10:14:52;3.28;;;2.22;;
49678;SDS011;35570;48.218;16.326;2023-06-14T10:17:27;2.53;;;1.90;;
49678;SDS011;35570;48.218;16.326;2023-06-14T10:20:02;3.90;;;2.28;;
49678;SDS011;35570;48.218;16.326;2023-06-14T10:25:13;2.92;;;1.80;;
49678;SDS011;35570;48.218;16.326;2023-06-14T10:27:52;3.47;;;2.63;;
49678;SDS011;35570;48.218;16.326;2023-06-14T10:30:18;3.95;;;1.80;;
49678;SDS011;35570;48.218;16.326;2023-06-14T10:33:06;4.40;;;1.87;;
49678;SDS011;35570;48.218;16.326;2023-06-14T10:35:32;3.25;;;1.90;;
49678;SDS011;35570;48.218;16.326;2023-06-14T10:38:08;4.72;;;2.00;;
49678;SDS011;35570;48.218;16.326;2023-06-14T10:40:36;5.15;;;2.22;;
49678;SDS011;35570;48.218;16.326;2023-06-14T10:43:20;3.15;;;1.90;;
49678;SDS011;35570;48.218;16.326;2023-06-14T10:48:48;3.72;;;2.33;;
49678;SDS011;35570;48.218;16.326;2023-06-14T10:51:17;4.85;;;2.40;;
49678;SDS011;35570;48.218;16.326;2023-06-14T10:53:45;3.05;;;2.05;;
49678;SDS011;35570;48.218;16.326;2023-06-14T10:56:34;3.90;;;2.30;;
49678;SDS011;35570;48.218;16.326;2023-06-14T10:58:59;2.63;;;2.00;;
49678;SDS011;35570;48.218;16.326;2023-06-14T11:01:37;3.85;;;2.10;;
49678;SDS011;35570;48.218;16.326;2023-06-14T11:04:10;4.82;;;2.13;;
49678;SDS011;35570;48.218;16.326;2023-06-14T11:06:44;4.20;;;2.30;;
49678;SDS011;35570;48.218;16.326;2023-06-14T11:09:27;5.25;;;2.00;;
49678;SDS011;35570;48.218;16.326;2023-06-14T11:12:16;2.88;;;2.45;;
49678;SDS011;35570;48.218;16.326;2023-06-14T11:14:45;6.05;;;2.00;;
49678;SDS011;35570;48.218;16.326;2023-06-14T11:17:12;4.22;;;2.10;;
49678;SDS011;35570;48.218;16.326;2023-06-14T11:19:38;3.53;;;1.63;;
49678;SDS011;35570;48.218;16.326;2023-06-14T11:22:04;2.97;;;1.95;;
49678;SDS011;35570;48.218;16.326;2023-06-14T11:24:31;4.13;;;2.08;;
49678;SDS011;35570;48.218;16.326;2023-06-14T11:26:58;2.83;;;1.70;;
49678;SDS011;35570;48.218;16.326;2023-06-14T11:29:23;4.15;;;1.88;;
49678;SDS011;35570;48.218;16.326;2023-06-14T11:31:50;6.00;;;1.85;;
49678;SDS011;35570;48.218;16.326;2023-06-14T11:34:15;4.05;;;2.00;;
49678;SDS011;35570;48.218;16.326;2023-06-14T11:36:42;4.30;;;1.75;;
49678;SDS011;35570;48.218;16.326;2023-06-14T11:39:08;3.90;;;2.08;;
49678;SDS011;35570;48.218;16.326;2023-06-14T11:41:43;4.68;;;2.28;;
49678;SDS011;35570;48.218;16.326;2023-06-14T11:44:10;4.78;;;2.15;;
49678;SDS011;35570;48.218;16.326;2023-06-14T11:46:36;4.50;;;2.20;;
49678;SDS011;35570;48.218;16.326;2023-06-14T11:49:03;6.78;;;2.25;;
49678;SDS011;35570;48.218;16.326;2023-06-14T11:51:32;2.95;;;2.50;;
49678;SDS011;35570;48.218;16.326;2023-06-14T11:54:00;3.85;;;2.50;;
49678;SDS011;35570;48.218;16.326;2023-06-14T11:56:27;3.47;;;2.75;;
49678;SDS011;35570;48.218;16.326;2023-06-14T11:58:53;5.05;;;2.30;;
49678;SDS011;35570;48.218;16.326;2023-06-14T12:01:22;7.13;;;2.90;;
49678;SDS011;35570;48.218;16.326;2023-06-14T12:03:51;4.80;;;2.05;;
49678;SDS011;35570;48.218;16.326;2023-06-14T12:06:28;2.78;;;2.05;;
49678;SDS011;35570;48.218;16.326;2023-06-14T12:08:57;2.83;;;2.10;;
49678;SDS011;35570;48.218;16.326;2023-06-14T12:11:24;2.35;;;1.98;;
49678;SDS011;35570;48.218;16.326;2023-06-14T12:13:56;3.47;;;2.00;;
49678;SDS011;35570;48.218;16.326;2023-06-14T12:16:29;6.00;;;2.10;;
49678;SDS011;35570;48.218;16.326;2023-06-14T12:18:59;2.38;;;1.70;;
49678;SDS011;35570;48.218;16.326;2023-06-14T12:21:26;4.68;;;1.63;;
49678;SDS011;35570;48.218;16.326;2023-06-14T12:23:53;2.75;;;1.70;;
49678;SDS011;35570;48.218;16.326;2023-06-14T12:26:19;2.67;;;1.88;;
49678;SDS011;35570;48.218;16.326;2023-06-14T12:28:46;4.25;;;2.00;;
49678;SDS011;35570;48.218;16.326;2023-06-14T12:31:13;4.68;;;1.80;;
49678;SDS011;35570;48.218;16.326;2023-06-14T12:33:39;4.90;;;2.10;;
49678;SDS011;35570;48.218;16.326;2023-06-14T12:36:09;3.20;;;2.17;;
49678;SDS011;35570;48.218;16.326;2023-06-14T12:38:36;2.97;;;2.00;;
49678;SDS011;35570;48.218;16.326;2023-06-14T12:41:02;5.20;;;2.92;;
49678;SDS011;35570;48.218;16.326;2023-06-14T12:43:28;5.18;;;2.28;;
49678;SDS011;35570;48.218;16.326;2023-06-14T12:45:53;4.13;;;2.38;;
49678;SDS011;35570;48.218;16.326;2023-06-14T12:48:19;4.88;;;2.08;;
49678;SDS011;35570;48.218;16.326;2023-06-14T12:50:46;5.57;;;2.28;;
49678;SDS011;35570;48.218;16.326;2023-06-14T12:53:12;11.15;;;2.15;;
49678;SDS011;35570;48.218;16.326;2023-06-14T12:55:39;2.90;;;2.08;;
49678;SDS011;35570;48.218;16.326;2023-06-14T12:58:05;5.90;;;2.35;;
49678;SDS011;35570;48.218;16.326;2023-06-14T13:00:30;5.50;;;1.95;;
49678;SDS011;35570;48.218;16.326;2023-06-14T13:02:56;2.72;;;1.65;;
49678;SDS011;35570;48.218;16.326;2023-06-14T13:05:22;5.78;;;2.00;;
49678;SDS011;35570;48.218;16.326;2023-06-14T13:07:48;4.05;;;2.25;;
49678;SDS011;35570;48.218;16.326;2023-06-14T13:10:14;3.25;;;2.25;;
49678;SDS011;35570;48.218;16.326;2023-06-14T13:12:40;2.65;;;2.00;;
49678;SDS011;35570;48.218;16.326;2023-06-14T13:15:06;5.93;;;3.03;;
49678;SDS011;35570;48.218;16.326;2023-06-14T13:17:33;3.75;;;2.47;;
49678;SDS011;35570;48.218;16.326;2023-06-14T13:20:03;7.43;;;4.32;;
49678;SDS011;35570;48.218;16.326;2023-06-14T13:22:33;6.38;;;4.15;;
49678;SDS011;35570;48.218;16.326;2023-06-14T13:24:59;4.70;;;3.92;;
49678;SDS011;35570;48.218;16.326;2023-06-14T13:27:26;6.97;;;2.97;;
49678;SDS011;35570;48.218;16.326;2023-06-14T13:29:52;5.63;;;2.45;;
49678;SDS011;35570;48.218;16.326;2023-06-14T13:32:20;6.20;;;2.42;;
49678;SDS011;35570;48.218;16.326;2023-06-14T13:34:46;5.22;;;2.38;;
49678;SDS011;35570;48.218;16.326;2023-06-14T13:37:11;6.28;;;2.28;;
49678;SDS011;35570;48.218;16.326;2023-06-14T13:39:37;4.22;;;2.13;;
49678;SDS011;35570;48.218;16.326;2023-06-14T13:42:03;4.15;;;1.70;;
49678;SDS011;35570;48.218;16.326;2023-06-14T13:44:29;8.45;;;2.03;;
49678;SDS011;35570;48.218;16.326;2023-06-14T13:46:54;4.13;;;2.15;;
49678;SDS011;35570;48.218;16.326;2023-06-14T13:49:20;3.58;;;1.92;;
49678;SDS011;35570;48.218;16.326;2023-06-14T13:51:46;4.28;;;1.77;;
49678;SDS011;35570;48.218;16.326;2023-06-14T13:54:12;3.15;;;1.90;;
49678;SDS011;35570;48.218;16.326;2023-06-14T13:56:40;4.30;;;2.70;;
49678;SDS011;35570;48.218;16.326;2023-06-14T13:59:06;3.58;;;2.03;;
49678;SDS011;35570;48.218;16.326;2023-06-14T14:01:31;4.28;;;2.03;;
49678;SDS011;35570;48.218;16.326;2023-06-14T14:03:57;4.72;;;2.08;;
49678;SDS011;35570;48.218;16.326;2023-06-14T14:06:23;4.28;;;2.00;;
49678;SDS011;35570;48.218;16.326;2023-06-14T14:08:49;5.07;;;1.98;;
49678;SDS011;35570;48.218;16.326;2023-06-14T14:11:15;8.25;;;2.20;;
49678;SDS011;35570;48.218;16.326;2023-06-14T14:13:41;5.22;;;2.20;;
49678;SDS011;35570;48.218;16.326;2023-06-14T14:16:07;4.40;;;2.00;;
49678;SDS011;35570;48.218;16.326;2023-06-14T14:18:33;2.92;;;1.60;;
49678;SDS011;35570;48.218;16.326;2023-06-14T14:20:59;10.10;;;2.05;;
49678;SDS011;35570;48.218;16.326;2023-06-14T14:23:25;2.90;;;1.73;;
49678;SDS011;35570;48.218;16.326;2023-06-14T14:25:51;2.35;;;1.88;;
49678;SDS011;35570;48.218;16.326;2023-06-14T14:28:17;3.55;;;1.80;;
49678;SDS011;35570;48.218;16.326;2023-06-14T14:30:45;4.15;;;1.60;;
49678;SDS011;35570;48.218;16.326;2023-06-14T14:33:12;3.03;;;1.83;;
49678;SDS011;35570;48.218;16.326;2023-06-14T14:35:44;6.18;;;1.98;;
49678;SDS011;35570;48.218;16.326;2023-06-14T14:38:11;3.55;;;2.40;;
49678;SDS011;35570;48.218;16.326;2023-06-14T14:40:37;7.03;;;2.80;;
49678;SDS011;35570;48.218;16.326;2023-06-14T14:43:03;5.45;;;3.30;;